createdAt,value
2017-10-17T00:00:56.067Z,94.93
2017-10-17T00:01:56.086Z,95.41
2017-10-17T00:02:56.017Z,96.27
2017-10-17T00:03:56.101Z,95.03
2017-10-17T00:04:55.981Z,95.32
2017-10-17T00:05:56.013Z,95.12
2017-10-17T00:06:55.935Z,95.51
2017-10-17T00:07:56.044Z,94.46
2017-10-17T00:08:55.889Z,94.46
2017-10-17T00:09:55.937Z,94.26
2017-10-17T00:10:55.841Z,93.98
2017-10-17T00:11:55.849Z,94.17
2017-10-17T00:12:55.792Z,95.22
2017-10-17T00:13:55.861Z,95.70
2017-10-17T00:14:55.765Z,95.22
2017-10-17T00:15:55.773Z,94.93
2017-10-17T00:16:55.704Z,96.08
2017-10-17T00:17:55.787Z,95.89
2017-10-17T00:18:55.661Z,95.51
2017-10-17T00:19:55.699Z,95.32
2017-10-17T00:20:55.618Z,95.32
2017-10-17T00:21:55.613Z,95.61
2017-10-17T00:22:55.573Z,95.03
2017-10-17T00:23:55.624Z,95.41
2017-10-17T00:24:55.529Z,96.47
2017-10-17T00:25:55.537Z,97.08
2017-10-17T00:26:55.510Z,95.98
2017-10-17T00:27:56.572Z,95.98
2017-10-17T00:28:55.434Z,95.32
2017-10-17T00:29:55.459Z,96.18
2017-10-17T00:30:55.388Z,95.98
2017-10-17T00:31:55.472Z,96.66
2017-10-17T00:32:55.343Z,95.89
2017-10-17T00:33:55.384Z,96.08
2017-10-17T00:34:55.301Z,95.79
2017-10-17T00:35:55.294Z,96.94
2017-10-17T00:36:55.261Z,95.89
2017-10-17T00:37:55.307Z,95.03
2017-10-17T00:38:55.211Z,94.74
2017-10-17T00:39:55.221Z,94.93
2017-10-17T00:40:55.163Z,95.32
2017-10-17T00:41:55.234Z,96.18
2017-10-17T00:42:55.124Z,96.56
2017-10-17T00:43:55.146Z,97.13
2017-10-17T00:44:55.072Z,96.56
2017-10-17T00:45:55.160Z,96.84
2017-10-17T00:46:55.029Z,95.61
2017-10-17T00:47:55.070Z,95.98
2017-10-17T00:48:54.984Z,96.18
2017-10-17T00:49:54.984Z,96.37
2017-10-17T00:50:54.938Z,97.13
2017-10-17T00:51:54.994Z,96.75
2017-10-17T00:52:54.899Z,97.13
2017-10-17T00:53:54.917Z,96.84
2017-10-17T00:54:54.851Z,96.47
2017-10-17T00:55:54.921Z,96.47
2017-10-17T00:56:54.802Z,95.98
2017-10-17T00:57:54.833Z,95.41
2017-10-17T00:58:54.765Z,95.32
2017-10-17T00:59:54.845Z,95.89
2017-10-17T01:00:54.711Z,96.08
2017-10-17T01:01:54.756Z,95.41
2017-10-17T01:02:54.668Z,96.66
2017-10-17T01:03:54.674Z,97.13
2017-10-17T01:04:54.626Z,97.13
2017-10-17T01:05:54.687Z,96.84
2017-10-17T01:06:54.589Z,95.61
2017-10-17T01:07:54.594Z,96.27
2017-10-17T01:08:54.534Z,97.33
2017-10-17T01:09:54.613Z,96.94
2017-10-17T01:10:54.485Z,96.18
2017-10-17T01:11:54.521Z,95.22
2017-10-17T01:12:54.440Z,95.32
2017-10-17T01:13:54.432Z,97.13
2017-10-17T01:14:54.398Z,97.04
2017-10-17T01:15:54.446Z,96.94
2017-10-17T01:16:54.350Z,96.42
2017-10-17T01:17:54.360Z,96.18
2017-10-17T01:18:54.305Z,95.89
2017-10-17T01:19:54.370Z,96.37
2017-10-17T01:20:54.257Z,96.56
2017-10-17T01:21:54.284Z,97.08
2017-10-17T01:22:54.219Z,96.94
2017-10-17T01:23:54.301Z,96.75
2017-10-17T01:24:54.168Z,96.56
2017-10-17T01:25:54.211Z,96.75
2017-10-17T01:26:54.125Z,96.75
2017-10-17T01:27:54.119Z,96.94
2017-10-17T01:28:54.091Z,96.37
2017-10-17T01:29:54.139Z,96.66
2017-10-17T01:30:54.032Z,96.47
2017-10-17T01:31:54.045Z,96.84
2017-10-17T01:32:53.990Z,97.23
2017-10-17T01:33:54.062Z,96.84
2017-10-17T01:34:53.941Z,96.18
2017-10-17T01:35:53.974Z,96.47
2017-10-17T01:36:53.901Z,95.98
2017-10-17T01:37:53.984Z,96.37
2017-10-17T01:38:53.850Z,96.37
2017-10-17T01:39:53.897Z,96.66
2017-10-17T01:40:53.804Z,96.75
2017-10-17T01:41:53.810Z,96.37
2017-10-17T01:42:53.760Z,96.18
2017-10-17T01:43:53.824Z,95.61
2017-10-17T01:44:53.713Z,96.18
2017-10-17T01:45:53.739Z,95.32
2017-10-17T01:46:53.667Z,95.89
2017-10-17T01:47:53.746Z,95.94
2017-10-17T01:48:53.631Z,95.84
2017-10-17T01:49:53.658Z,95.65
2017-10-17T01:50:53.585Z,96.32
2017-10-17T01:51:53.572Z,96.32
2017-10-17T01:52:53.534Z,96.42
2017-10-17T01:53:53.583Z,96.03
2017-10-17T01:54:53.488Z,95.75
2017-10-17T01:55:53.498Z,96.22
2017-10-17T01:56:53.444Z,95.94
2017-10-17T01:57:53.510Z,96.13
2017-10-17T01:58:53.393Z,96.22
2017-10-17T01:59:53.423Z,96.70
2017-10-17T02:00:53.352Z,96.13
2017-10-17T02:01:53.433Z,96.32
2017-10-17T02:02:53.302Z,95.84
2017-10-17T02:03:53.349Z,95.56
2017-10-17T02:04:53.259Z,95.84
2017-10-17T02:05:53.257Z,96.70
2017-10-17T02:06:53.220Z,97.18
2017-10-17T02:07:53.274Z,96.13
2017-10-17T02:08:53.168Z,96.22
2017-10-17T02:09:53.185Z,96.22
2017-10-17T02:10:53.122Z,97.08
2017-10-17T02:11:53.200Z,97.56
2017-10-17T02:12:53.078Z,97.75
2017-10-17T02:13:53.117Z,97.18
2017-10-17T02:14:53.040Z,96.70
2017-10-17T02:15:53.126Z,96.51
2017-10-17T02:16:52.987Z,96.13
2017-10-17T02:17:53.036Z,96.70
2017-10-17T02:18:52.941Z,96.99
2017-10-17T02:19:52.945Z,97.28
2017-10-17T02:20:52.895Z,96.51
2017-10-17T02:21:52.961Z,98.23
2017-10-17T02:22:52.848Z,98.71
2017-10-17T02:23:52.870Z,98.23
2017-10-17T02:24:52.801Z,98.23
2017-10-17T02:25:52.886Z,98.23
2017-10-17T02:26:52.755Z,97.94
2017-10-17T02:27:52.797Z,98.42
2017-10-17T02:28:52.723Z,97.47
2017-10-17T02:29:52.706Z,98.42
2017-10-17T02:30:52.666Z,98.23
2017-10-17T02:31:52.724Z,97.85
2017-10-17T02:32:52.620Z,97.47
2017-10-17T02:33:52.633Z,97.08
2017-10-17T02:34:52.574Z,97.42
2017-10-17T02:35:52.644Z,97.94
2017-10-17T02:36:52.528Z,97.85
2017-10-17T02:37:52.556Z,98.75
2017-10-17T02:38:52.483Z,98.80
2017-10-17T02:39:52.572Z,98.52
2017-10-17T02:40:52.437Z,98.23
2017-10-17T02:41:52.486Z,98.23
2017-10-17T02:42:52.388Z,98.47
2017-10-17T02:43:52.393Z,98.18
2017-10-17T02:44:52.346Z,98.37
2017-10-17T02:45:52.410Z,98.80
2017-10-17T02:46:52.301Z,98.33
2017-10-17T02:47:52.319Z,98.04
2017-10-17T02:48:52.255Z,97.89
2017-10-17T02:49:52.335Z,98.37
2017-10-17T02:50:52.212Z,98.66
2017-10-17T02:51:52.244Z,98.37
2017-10-17T02:52:52.161Z,97.89
2017-10-17T02:53:52.156Z,98.28
2017-10-17T02:54:52.116Z,98.28
2017-10-17T02:55:52.167Z,98.85
2017-10-17T02:56:52.069Z,98.18
2017-10-17T02:57:52.080Z,98.47
2017-10-17T02:58:52.021Z,98.28
2017-10-17T02:59:52.094Z,97.61
2017-10-17T03:00:51.981Z,98.08
2017-10-17T03:01:52.016Z,98.18
2017-10-17T03:02:51.931Z,98.18
2017-10-17T03:03:51.918Z,97.80
2017-10-17T03:04:51.888Z,98.18
2017-10-17T03:05:52.959Z,98.57
2017-10-17T03:06:51.834Z,98.28
2017-10-17T03:07:51.840Z,98.28
2017-10-17T03:08:51.793Z,98.37
2017-10-17T03:09:51.858Z,98.18
2017-10-17T03:10:51.743Z,98.37
2017-10-17T03:11:51.776Z,97.89
2017-10-17T03:12:51.698Z,97.89
2017-10-17T03:13:51.782Z,97.89
2017-10-17T03:14:51.652Z,98.75
2017-10-17T03:15:51.696Z,98.66
2017-10-17T03:16:51.606Z,98.66
2017-10-17T03:17:51.606Z,98.85
2017-10-17T03:18:51.561Z,98.47
2017-10-17T03:19:51.617Z,98.37
2017-10-17T03:20:51.515Z,98.18
2017-10-17T03:21:51.531Z,98.08
2017-10-17T03:22:51.472Z,97.89
2017-10-17T03:23:51.549Z,97.71
2017-10-17T03:24:51.424Z,98.08
2017-10-17T03:25:51.455Z,98.08
2017-10-17T03:26:51.376Z,98.18
2017-10-17T03:27:51.373Z,98.75
2017-10-17T03:28:51.333Z,98.47
2017-10-17T03:29:51.381Z,98.08
2017-10-17T03:30:51.283Z,98.28
2017-10-17T03:31:51.293Z,98.66
2017-10-17T03:32:51.240Z,98.47
2017-10-17T03:33:51.308Z,98.94
2017-10-17T03:34:51.187Z,98.28
2017-10-17T03:35:51.222Z,99.99
2017-10-17T03:36:51.142Z,99.99
2017-10-17T03:37:51.233Z,99.99
2017-10-17T03:38:51.097Z,99.71
2017-10-17T03:39:51.145Z,99.80
2017-10-17T03:40:51.048Z,99.80
2017-10-17T03:41:51.058Z,99.99
2017-10-17T03:42:51.006Z,99.99
2017-10-17T03:43:51.072Z,99.48
2017-10-17T03:44:50.958Z,99.48
2017-10-17T03:45:50.984Z,99.19
2017-10-17T03:46:50.916Z,98.99
2017-10-17T03:47:50.997Z,99.66
2017-10-17T03:48:50.870Z,99.57
2017-10-17T03:49:50.906Z,99.71
2017-10-17T03:50:50.826Z,99.43
2017-10-17T03:51:50.820Z,99.99
2017-10-17T03:52:50.785Z,99.62
2017-10-17T03:53:50.834Z,99.33
2017-10-17T03:54:50.730Z,99.52
2017-10-17T03:55:50.743Z,99.04
2017-10-17T03:56:50.680Z,98.28
2017-10-17T03:57:50.762Z,99.04
2017-10-17T03:58:50.633Z,98.38
2017-10-17T03:59:50.671Z,98.75
2017-10-17T04:00:50.588Z,99.62
2017-10-17T04:01:50.579Z,99.33
2017-10-17T04:02:50.547Z,98.95
2017-10-17T04:03:50.596Z,98.75
2017-10-17T04:04:50.503Z,99.24
2017-10-17T04:05:50.507Z,98.95
2017-10-17T04:06:50.451Z,99.62
2017-10-17T04:07:50.521Z,98.66
2017-10-17T04:08:50.403Z,98.85
2017-10-17T04:09:50.432Z,98.75
2017-10-17T04:10:50.366Z,99.04
2017-10-17T04:11:50.447Z,99.33
2017-10-17T04:12:50.311Z,99.52
2017-10-17T04:13:50.357Z,99.52
2017-10-17T04:14:50.284Z,99.43
2017-10-17T04:15:50.270Z,98.57
2017-10-17T04:16:50.223Z,99.24
2017-10-17T04:17:50.288Z,98.66
2017-10-17T04:18:50.176Z,99.04
2017-10-17T04:19:50.197Z,98.85
2017-10-17T04:20:50.126Z,99.14
2017-10-17T04:21:50.213Z,98.75
2017-10-17T04:22:50.081Z,99.62
2017-10-17T04:23:50.125Z,99.67
2017-10-17T04:24:50.036Z,98.95
2017-10-17T04:25:50.033Z,99.86
2017-10-17T04:26:49.990Z,99.96
2017-10-17T04:27:50.054Z,99.57
2017-10-17T04:28:49.945Z,99.19
2017-10-17T04:29:49.962Z,99.10
2017-10-17T04:30:49.900Z,99.76
2017-10-17T04:31:49.976Z,99.86
2017-10-17T04:32:49.853Z,99.99
2017-10-17T04:33:49.887Z,99.67
2017-10-17T04:34:49.809Z,99.76
2017-10-17T04:35:49.898Z,99.19
2017-10-17T04:36:49.765Z,99.38
2017-10-17T04:37:49.811Z,98.71
2017-10-17T04:38:49.719Z,99.10
2017-10-17T04:39:49.728Z,99.57
2017-10-17T04:40:49.673Z,98.61
2017-10-17T04:41:49.736Z,99.76
2017-10-17T04:42:49.627Z,99.67
2017-10-17T04:43:49.649Z,99.29
2017-10-17T04:44:49.580Z,99.29
2017-10-17T04:45:49.660Z,99.86
2017-10-17T04:46:49.530Z,99.76
2017-10-17T04:47:49.574Z,99.57
2017-10-17T04:48:49.500Z,99.00
2017-10-17T04:49:49.483Z,99.48
2017-10-17T04:50:49.449Z,99.29
2017-10-17T04:51:49.493Z,99.86
2017-10-17T04:52:49.399Z,99.76
2017-10-17T04:53:49.406Z,99.86
2017-10-17T04:54:49.351Z,99.86
2017-10-17T04:55:49.420Z,99.76
2017-10-17T04:56:49.304Z,99.86
2017-10-17T04:57:49.337Z,99.99
2017-10-17T04:58:49.260Z,99.57
2017-10-17T04:59:49.346Z,99.76
2017-10-17T05:00:49.213Z,99.57
2017-10-17T05:01:49.261Z,99.86
2017-10-17T05:02:49.172Z,99.86
2017-10-17T05:03:49.170Z,99.99
2017-10-17T05:04:49.128Z,99.96
2017-10-17T05:05:49.185Z,99.99
2017-10-17T05:06:49.074Z,99.67
2017-10-17T05:07:49.099Z,99.48
2017-10-17T05:08:49.033Z,99.76
2017-10-17T05:09:49.115Z,99.67
2017-10-17T05:10:48.986Z,99.86
2017-10-17T05:11:49.019Z,99.86
2017-10-17T05:12:48.938Z,99.76
2017-10-17T05:13:48.931Z,99.99
2017-10-17T05:14:48.898Z,99.86
2017-10-17T05:15:48.945Z,99.57
2017-10-17T05:16:48.851Z,99.38
2017-10-17T05:17:48.858Z,99.57
2017-10-17T05:18:48.812Z,99.33
2017-10-17T05:19:48.870Z,99.91
2017-10-17T05:20:48.763Z,99.62
2017-10-17T05:21:48.787Z,99.67
2017-10-17T05:22:48.712Z,99.05
2017-10-17T05:23:48.797Z,99.33
2017-10-17T05:24:48.666Z,98.86
2017-10-17T05:25:48.708Z,99.05
2017-10-17T05:26:48.622Z,99.72
2017-10-17T05:27:48.620Z,99.15
2017-10-17T05:28:48.588Z,99.15
2017-10-17T05:29:48.652Z,99.24
2017-10-17T05:30:48.534Z,99.91
2017-10-17T05:31:48.541Z,99.15
2017-10-17T05:32:48.494Z,99.33
2017-10-17T05:33:48.558Z,98.66
2017-10-17T05:34:48.439Z,99.33
2017-10-17T05:35:48.467Z,99.05
2017-10-17T05:36:48.393Z,98.95
2017-10-17T05:37:48.482Z,98.66
2017-10-17T05:38:48.348Z,98.86
2017-10-17T05:39:48.399Z,99.05
2017-10-17T05:40:48.308Z,98.66
2017-10-17T05:41:48.308Z,98.57
2017-10-17T05:42:48.260Z,98.76
2017-10-17T05:43:48.319Z,99.62
2017-10-17T05:44:48.232Z,98.86
2017-10-17T05:45:48.241Z,99.24
2017-10-17T05:46:48.173Z,98.57
2017-10-17T05:47:48.245Z,99.15
2017-10-17T05:48:48.122Z,98.86
2017-10-17T05:49:48.158Z,99.15
2017-10-17T05:50:48.080Z,99.24
2017-10-17T05:51:48.171Z,98.76
2017-10-17T05:52:48.038Z,99.05
2017-10-17T05:53:48.090Z,98.86
2017-10-17T05:54:47.998Z,98.57
2017-10-17T05:55:47.996Z,99.81
2017-10-17T05:56:47.943Z,99.81
2017-10-17T05:57:48.010Z,99.62
2017-10-17T05:58:47.904Z,99.15
2017-10-17T05:59:47.921Z,99.33
2017-10-17T06:00:47.855Z,99.15
2017-10-17T06:01:47.958Z,99.24
2017-10-17T06:02:47.809Z,98.86
2017-10-17T06:03:47.845Z,98.57
2017-10-17T06:04:47.768Z,98.66
2017-10-17T06:05:47.861Z,98.95
2017-10-17T06:06:47.719Z,98.47
2017-10-17T06:07:47.779Z,99.15
2017-10-17T06:08:47.675Z,98.76
2017-10-17T06:09:47.683Z,99.05
2017-10-17T06:10:47.649Z,99.24
2017-10-17T06:11:47.697Z,99.05
2017-10-17T06:12:47.594Z,98.86
2017-10-17T06:13:47.615Z,98.38
2017-10-17T06:14:47.542Z,98.76
2017-10-17T06:15:47.621Z,98.57
2017-10-17T06:16:47.499Z,98.38
2017-10-17T06:17:47.533Z,99.05
2017-10-17T06:18:47.456Z,98.57
2017-10-17T06:19:47.551Z,98.57
2017-10-17T06:20:47.406Z,98.38
2017-10-17T06:21:47.458Z,98.28
2017-10-17T06:22:47.363Z,99.05
2017-10-17T06:23:47.368Z,98.28
2017-10-17T06:24:47.315Z,98.76
2017-10-17T06:25:47.384Z,98.28
2017-10-17T06:26:47.276Z,98.86
2017-10-17T06:27:47.293Z,98.47
2017-10-17T06:28:47.229Z,98.86
2017-10-17T06:29:47.311Z,98.95
2017-10-17T06:30:47.184Z,98.66
2017-10-17T06:31:47.221Z,98.66
2017-10-17T06:32:47.135Z,98.76
2017-10-17T06:33:47.133Z,98.95
2017-10-17T06:34:47.090Z,98.38
2017-10-17T06:35:47.148Z,98.66
2017-10-17T06:36:47.055Z,99.05
2017-10-17T06:37:47.075Z,98.66
2017-10-17T06:38:47.003Z,98.76
2017-10-17T06:39:47.074Z,98.57
2017-10-17T06:40:46.963Z,98.47
2017-10-17T06:41:46.982Z,98.66
2017-10-17T06:42:46.916Z,98.76
2017-10-17T06:43:46.999Z,98.57
2017-10-17T06:44:46.871Z,98.62
2017-10-17T06:45:46.909Z,98.71
2017-10-17T06:46:46.831Z,98.62
2017-10-17T06:47:46.820Z,98.43
2017-10-17T06:48:46.784Z,98.62
2017-10-17T06:49:46.771Z,99.00
2017-10-17T06:50:46.740Z,98.91
2017-10-17T06:51:46.747Z,98.33
2017-10-17T06:52:46.693Z,99.00
2017-10-17T06:53:46.760Z,98.52
2017-10-17T06:54:46.652Z,99.10
2017-10-17T06:55:46.668Z,99.00
2017-10-17T06:56:46.599Z,98.33
2017-10-17T06:57:46.685Z,98.81
2017-10-17T06:58:46.576Z,98.43
2017-10-17T06:59:46.599Z,98.43
2017-10-17T07:00:46.520Z,98.33
2017-10-17T07:01:46.506Z,98.71
2017-10-17T07:02:46.471Z,98.24
2017-10-17T07:03:46.522Z,98.24
2017-10-17T07:04:46.426Z,98.24
2017-10-17T07:05:46.431Z,98.52
2017-10-17T07:06:46.380Z,98.33
2017-10-17T07:07:46.447Z,98.33
2017-10-17T07:08:46.340Z,98.52
2017-10-17T07:09:46.358Z,97.85
2017-10-17T07:10:46.294Z,98.43
2017-10-17T07:11:46.373Z,98.43
2017-10-17T07:12:46.245Z,98.24
2017-10-17T07:13:46.284Z,98.52
2017-10-17T07:14:46.202Z,98.62
2017-10-17T07:15:46.196Z,98.33
2017-10-17T07:16:46.163Z,98.43
2017-10-17T07:17:46.210Z,98.62
2017-10-17T07:18:46.113Z,97.95
2017-10-17T07:19:46.122Z,98.43
2017-10-17T07:20:46.067Z,98.43
2017-10-17T07:21:46.134Z,98.52
2017-10-17T07:22:46.026Z,98.05
2017-10-17T07:23:46.047Z,98.43
2017-10-17T07:24:45.979Z,98.71
2017-10-17T07:25:46.059Z,98.33
2017-10-17T07:26:45.940Z,97.75
2017-10-17T07:27:45.971Z,97.95
2017-10-17T07:28:45.894Z,97.28
2017-10-17T07:29:45.869Z,97.33
2017-10-17T07:30:46.406Z,97.33
2017-10-17T07:31:46.411Z,97.80
2017-10-17T07:32:45.903Z,98.38
2017-10-17T07:33:45.781Z,97.71
2017-10-17T07:34:45.756Z,97.42
2017-10-17T07:35:45.822Z,97.33
2017-10-17T07:36:45.715Z,96.66
2017-10-17T07:37:45.734Z,97.42
2017-10-17T07:38:45.677Z,96.94
2017-10-17T07:39:45.748Z,97.04
2017-10-17T07:40:45.628Z,96.56
2017-10-17T07:41:45.659Z,96.94
2017-10-17T07:42:45.579Z,97.14
2017-10-17T07:43:45.670Z,97.14
2017-10-17T07:44:45.541Z,96.94
2017-10-17T07:45:45.584Z,96.56
2017-10-17T07:46:45.497Z,96.75
2017-10-17T07:47:45.497Z,96.66
2017-10-17T07:48:45.452Z,96.18
2017-10-17T07:49:45.507Z,95.79
2017-10-17T07:50:45.409Z,95.41
2017-10-17T07:51:45.423Z,95.65
2017-10-17T07:52:45.370Z,96.08
2017-10-17T07:53:45.435Z,96.22
2017-10-17T07:54:45.318Z,96.03
2017-10-17T07:55:45.346Z,95.65
2017-10-17T07:56:45.273Z,95.46
2017-10-17T07:57:45.362Z,95.07
2017-10-17T07:58:45.241Z,94.69
2017-10-17T07:59:45.272Z,94.40
2017-10-17T08:00:45.186Z,94.50
2017-10-17T08:01:45.183Z,94.69
2017-10-17T08:02:45.143Z,94.79
2017-10-17T08:03:45.198Z,94.79
2017-10-17T08:04:45.098Z,94.79
2017-10-17T08:05:45.106Z,94.79
2017-10-17T08:06:45.054Z,94.40
2017-10-17T08:07:45.118Z,94.21
2017-10-17T08:08:45.017Z,94.07
2017-10-17T08:09:45.033Z,94.26
2017-10-17T08:10:44.971Z,94.07
2017-10-17T08:11:45.053Z,93.97
2017-10-17T08:12:44.927Z,93.97
2017-10-17T08:13:44.960Z,94.31
2017-10-17T08:14:44.883Z,94.02
2017-10-17T08:15:44.974Z,93.78
2017-10-17T08:16:44.837Z,94.07
2017-10-17T08:17:44.887Z,94.40
2017-10-17T08:18:44.798Z,93.59
2017-10-17T08:19:44.794Z,93.49
2017-10-17T08:20:44.752Z,93.59
2017-10-17T08:21:44.807Z,94.26
2017-10-17T08:22:44.705Z,94.07
2017-10-17T08:23:44.719Z,93.11
2017-10-17T08:24:44.672Z,93.68
2017-10-17T08:25:44.732Z,93.11
2017-10-17T08:26:44.621Z,94.35
2017-10-17T08:27:44.645Z,93.88
2017-10-17T08:28:44.583Z,93.88
2017-10-17T08:29:44.666Z,93.59
2017-10-17T08:30:44.543Z,93.21
2017-10-17T08:31:44.574Z,93.78
2017-10-17T08:32:44.498Z,93.97
2017-10-17T08:33:44.587Z,93.88
2017-10-17T08:34:44.454Z,93.59
2017-10-17T08:35:44.498Z,93.11
2017-10-17T08:36:44.412Z,93.49
2017-10-17T08:37:44.406Z,93.40
2017-10-17T08:38:44.377Z,94.45
2017-10-17T08:39:44.426Z,92.82
2017-10-17T08:40:44.342Z,92.54
2017-10-17T08:41:44.334Z,92.54
2017-10-17T08:42:44.281Z,92.54
2017-10-17T08:43:44.348Z,91.86
2017-10-17T08:44:44.237Z,92.24
2017-10-17T08:45:44.260Z,91.96
2017-10-17T08:46:44.195Z,91.77
2017-10-17T08:47:44.275Z,92.29
2017-10-17T08:48:44.150Z,91.91
2017-10-17T08:49:44.181Z,91.52
2017-10-17T08:50:44.115Z,90.85
2017-10-17T08:51:44.195Z,90.85
2017-10-17T08:52:44.064Z,90.75
2017-10-17T08:53:44.110Z,91.24
2017-10-17T08:54:44.024Z,91.81
2017-10-17T08:55:44.019Z,91.72
2017-10-17T08:56:43.987Z,89.70
2017-10-17T08:57:44.037Z,89.51
2017-10-17T08:58:43.941Z,89.61
2017-10-17T08:59:43.946Z,90.28
2017-10-17T09:00:43.899Z,90.56
2017-10-17T09:01:43.960Z,89.03
2017-10-17T09:02:43.853Z,89.61
2017-10-17T09:03:43.869Z,89.22
2017-10-17T09:04:43.813Z,89.46
2017-10-17T09:05:43.885Z,89.84
2017-10-17T09:06:43.769Z,90.32
2017-10-17T09:07:43.794Z,89.84
2017-10-17T09:08:43.727Z,89.46
2017-10-17T09:09:43.812Z,89.26
2017-10-17T09:10:43.682Z,88.49
2017-10-17T09:11:43.726Z,88.88
2017-10-17T09:12:43.643Z,88.31
2017-10-17T09:13:43.633Z,88.02
2017-10-17T09:14:43.613Z,88.11
2017-10-17T09:15:43.653Z,87.63
2017-10-17T09:16:43.564Z,88.49
2017-10-17T09:17:43.562Z,87.44
2017-10-17T09:18:43.517Z,88.02
2017-10-17T09:19:43.575Z,87.73
2017-10-17T09:20:43.476Z,86.52
2017-10-17T09:21:43.535Z,86.19
2017-10-17T09:22:43.430Z,87.39
2017-10-17T09:23:43.575Z,86.91
2017-10-17T09:24:43.439Z,86.91
2017-10-17T09:25:43.412Z,86.72
2017-10-17T09:26:43.347Z,86.81
2017-10-17T09:27:43.328Z,87.05
2017-10-17T09:28:43.330Z,84.36
2017-10-17T09:29:43.286Z,84.21
2017-10-17T09:30:43.351Z,83.63
2017-10-17T09:31:43.246Z,84.11
2017-10-17T09:32:43.255Z,82.57
2017-10-17T09:33:43.203Z,81.61
2017-10-17T09:34:43.269Z,81.71
2017-10-17T09:35:43.161Z,82.09
2017-10-17T09:36:43.187Z,81.37
2017-10-17T09:37:43.122Z,79.92
2017-10-17T09:38:43.196Z,81.56
2017-10-17T09:39:43.083Z,82.04
2017-10-17T09:40:43.107Z,81.56
2017-10-17T09:41:43.042Z,81.17
2017-10-17T09:42:43.121Z,80.60
2017-10-17T09:43:43.000Z,81.04
2017-10-17T09:44:43.032Z,80.36
2017-10-17T09:45:42.965Z,81.23
2017-10-17T09:46:43.046Z,80.65
2017-10-17T09:47:42.919Z,80.55
2017-10-17T09:48:42.957Z,81.13
2017-10-17T09:49:42.880Z,81.90
2017-10-17T09:50:42.972Z,83.15
2017-10-17T09:51:42.849Z,82.09
2017-10-17T09:52:42.883Z,82.09
2017-10-17T09:53:42.808Z,81.61
2017-10-17T09:54:42.795Z,82.96
2017-10-17T09:55:42.759Z,81.61
2017-10-17T09:56:42.833Z,82.38
2017-10-17T09:57:42.732Z,82.48
2017-10-17T09:58:42.722Z,83.01
2017-10-17T09:59:42.681Z,82.82
2017-10-17T10:00:42.735Z,83.30
2017-10-17T10:01:43.472Z,83.49
2017-10-17T10:02:42.621Z,83.40
2017-10-17T10:03:42.606Z,83.11
2017-10-17T10:04:42.662Z,83.97
2017-10-17T10:05:42.560Z,83.63
2017-10-17T10:06:42.571Z,82.48
2017-10-17T10:07:42.517Z,81.90
2017-10-17T10:08:42.583Z,82.32
2017-10-17T10:09:42.483Z,82.81
2017-10-17T10:10:42.496Z,81.27
2017-10-17T10:11:42.442Z,80.79
2017-10-17T10:12:42.509Z,81.37
2017-10-17T10:13:42.398Z,81.27
2017-10-17T10:14:42.428Z,80.50
2017-10-17T10:15:42.420Z,81.27
2017-10-17T10:16:42.445Z,80.79
2017-10-17T10:17:42.322Z,80.98
2017-10-17T10:18:42.346Z,81.02
2017-10-17T10:19:42.285Z,80.06
2017-10-17T10:20:42.361Z,80.35
2017-10-17T10:21:42.251Z,80.25
2017-10-17T10:22:42.270Z,79.77
2017-10-17T10:23:42.205Z,79.61
2017-10-17T10:24:42.289Z,79.03
2017-10-17T10:25:42.166Z,76.96
2017-10-17T10:26:42.199Z,77.53
2017-10-17T10:27:42.125Z,77.63
2017-10-17T10:28:42.213Z,76.51
2017-10-17T10:29:42.086Z,75.71
2017-10-17T10:30:42.125Z,76.09
2017-10-17T10:31:42.051Z,76.18
2017-10-17T10:32:42.138Z,77.73
2017-10-17T10:33:42.009Z,76.63
2017-10-17T10:34:42.051Z,77.21
2017-10-17T10:35:41.977Z,78.27
2017-10-17T10:36:42.071Z,78.08
2017-10-17T10:37:41.935Z,79.13
2017-10-17T10:38:41.976Z,78.65
2017-10-17T10:39:41.895Z,79.03
2017-10-17T10:40:41.990Z,79.10
2017-10-17T10:41:41.858Z,79.19
2017-10-17T10:42:41.905Z,79.77
2017-10-17T10:43:41.825Z,80.15
2017-10-17T10:44:41.916Z,80.54
2017-10-17T10:45:41.784Z,80.21
2017-10-17T10:46:41.836Z,81.17
2017-10-17T10:47:41.748Z,81.37
2017-10-17T10:48:41.844Z,81.17
2017-10-17T10:49:41.708Z,81.07
2017-10-17T10:50:41.756Z,81.17
2017-10-17T10:51:41.670Z,82.14
2017-10-17T10:52:41.669Z,82.14
2017-10-17T10:53:41.632Z,82.14
2017-10-17T10:54:41.680Z,82.38
2017-10-17T10:55:41.588Z,82.96
2017-10-17T10:56:41.594Z,82.19
2017-10-17T10:57:41.555Z,82.48
2017-10-17T10:58:41.603Z,82.90
2017-10-17T10:59:41.513Z,83.19
2017-10-17T11:00:41.515Z,83.15
2017-10-17T11:01:41.477Z,83.92
2017-10-17T11:02:41.529Z,83.34
2017-10-17T11:03:41.435Z,83.83
2017-10-17T11:04:41.447Z,83.63
2017-10-17T11:05:41.404Z,83.53
2017-10-17T11:06:41.456Z,84.88
2017-10-17T11:07:41.364Z,85.46
2017-10-17T11:08:41.365Z,84.78
2017-10-17T11:09:41.328Z,83.83
2017-10-17T11:10:41.379Z,84.30
2017-10-17T11:11:41.284Z,83.15
2017-10-17T11:12:41.291Z,83.44
2017-10-17T11:13:41.241Z,83.58
2017-10-17T11:14:41.307Z,83.48
2017-10-17T11:15:41.210Z,82.56
2017-10-17T11:16:41.215Z,81.50
2017-10-17T11:17:41.162Z,81.17
2017-10-17T11:18:41.231Z,81.84
2017-10-17T11:19:41.123Z,81.17
2017-10-17T11:20:41.135Z,81.27
2017-10-17T11:21:41.086Z,81.84
2017-10-17T11:22:41.156Z,82.52
2017-10-17T11:23:41.052Z,81.94
2017-10-17T11:24:41.067Z,82.81
2017-10-17T11:25:41.008Z,82.81
2017-10-17T11:26:41.079Z,82.76
2017-10-17T11:27:40.973Z,82.76
2017-10-17T11:28:40.990Z,83.34
2017-10-17T11:29:40.937Z,83.25
2017-10-17T11:30:41.006Z,84.21
2017-10-17T11:31:40.891Z,84.21
2017-10-17T11:32:40.915Z,83.34
2017-10-17T11:33:40.852Z,84.01
2017-10-17T11:34:40.928Z,83.73
2017-10-17T11:35:40.813Z,83.92
2017-10-17T11:36:40.844Z,83.92
2017-10-17T11:37:40.774Z,83.92
2017-10-17T11:38:40.853Z,82.81
2017-10-17T11:39:40.737Z,82.71
2017-10-17T11:40:40.764Z,81.94
2017-10-17T11:41:40.693Z,81.94
2017-10-17T11:42:40.778Z,82.37
2017-10-17T11:43:40.660Z,81.88
2017-10-17T11:44:40.693Z,79.61
2017-10-17T11:45:40.614Z,79.03
2017-10-17T11:46:40.708Z,77.63
2017-10-17T11:47:40.580Z,78.25
2017-10-17T11:48:40.615Z,77.76
2017-10-17T11:49:40.538Z,75.93
2017-10-17T11:50:40.628Z,76.57
2017-10-17T11:51:40.507Z,76.96
2017-10-17T11:52:40.540Z,77.73
2017-10-17T11:53:40.466Z,77.69
2017-10-17T11:54:40.553Z,78.08
2017-10-17T11:55:40.428Z,79.03
2017-10-17T11:56:40.464Z,78.61
2017-10-17T11:57:40.412Z,78.81
2017-10-17T11:58:40.479Z,78.08
2017-10-17T11:59:40.529Z,77.98
2017-10-17T12:00:40.418Z,79.61
2017-10-17T12:01:40.312Z,79.52
2017-10-17T12:02:40.409Z,79.13
2017-10-17T12:03:40.278Z,79.00
2017-10-17T12:04:40.317Z,79.00
2017-10-17T12:05:40.235Z,79.10
2017-10-17T12:06:40.228Z,79.67
2017-10-17T12:07:40.201Z,79.86
2017-10-17T12:08:40.242Z,79.77
2017-10-17T12:09:40.162Z,79.58
2017-10-17T12:10:40.153Z,80.06
2017-10-17T12:11:40.125Z,79.96
2017-10-17T12:12:40.166Z,79.67
2017-10-17T12:13:40.089Z,78.36
2017-10-17T12:14:40.081Z,77.98
2017-10-17T12:15:40.047Z,78.46
2017-10-17T12:16:40.101Z,78.75
2017-10-17T12:17:40.007Z,78.21
2017-10-17T12:18:40.016Z,77.96
2017-10-17T12:19:39.985Z,77.28
2017-10-17T12:20:40.021Z,76.26
2017-10-17T12:21:39.934Z,75.20
2017-10-17T12:22:39.929Z,73.27
2017-10-17T12:23:39.901Z,73.72
2017-10-17T12:24:39.948Z,75.16
2017-10-17T12:25:39.861Z,73.82
2017-10-17T12:26:39.857Z,74.84
2017-10-17T12:27:39.840Z,76.67
2017-10-17T12:28:39.873Z,75.55
2017-10-17T12:29:39.789Z,74.30
2017-10-17T12:30:39.781Z,73.72
2017-10-17T12:31:39.757Z,74.74
2017-10-17T12:32:39.797Z,74.84
2017-10-17T12:33:39.728Z,74.65
2017-10-17T12:34:39.812Z,75.80
2017-10-17T12:35:39.702Z,74.78
2017-10-17T12:36:39.719Z,74.78
2017-10-17T12:37:39.647Z,74.78
2017-10-17T12:38:39.736Z,75.36
2017-10-17T12:39:39.610Z,76.03
2017-10-17T12:40:39.647Z,75.36
2017-10-17T12:41:39.579Z,73.57
2017-10-17T12:42:39.662Z,74.43
2017-10-17T12:43:39.542Z,73.14
2017-10-17T12:44:39.579Z,73.62
2017-10-17T12:45:39.505Z,73.72
2017-10-17T12:46:39.588Z,73.62
2017-10-17T12:47:39.470Z,74.40
2017-10-17T12:48:39.501Z,73.53
2017-10-17T12:49:39.434Z,73.91
2017-10-17T12:50:39.514Z,74.01
2017-10-17T12:51:39.404Z,74.78
2017-10-17T12:52:39.426Z,75.78